Time;durP1;ratioP1;P1;durP2;ratioP2;P2;SDS_P1;SDS_P2;PMS_P1;PMS_P2;Temp;Humidity;BMP_temperature;BMP_pressure;BME280_temperature;BME280_humidity;BME280_pressure;Samples;Min_cycle;Max_cycle;Signal;HPM_P1;HPM_P2
2022/07/24 00:01:30;;;;;;;15.77;14.18;;;;;;;;;;5041266;28;20391;-69
2022/07/24 00:03:55;;;;;;;16.33;14.65;;;;;;;;;;5041104;28;20056;-69
2022/07/24 00:06:22;;;;;;;16.88;15.23;;;;;;;;;;5038819;28;20094;-69
2022/07/24 00:08:48;;;;;;;15.25;13.52;;;;;;;;;;5040453;28;20043;-69
2022/07/24 00:11:14;;;;;;;16.60;15.02;;;;;;;;;;5041816;28;20032;-69
2022/07/24 00:13:39;;;;;;;16.98;15.38;;;;;;;;;;5039562;28;20451;-69
2022/07/24 00:16:06;;;;;;;17.25;15.10;;;;;;;;;;5040289;28;20037;-69
2022/07/24 00:18:32;;;;;;;17.10;15.40;;;;;;;;;;5045863;28;20504;-69
2022/07/24 00:21:00;;;;;;;;;;;;;;;;;;5042065;28;20460;-69
2022/07/24 00:23:26;;;;;;;16.80;15.20;;;;;;;;;;5047323;28;20011;-69
2022/07/24 00:25:53;;;;;;;15.70;14.10;;;;;;;;;;5043059;28;20033;-69
2022/07/24 00:28:18;;;;;;;16.92;15.20;;;;;;;;;;5047338;28;20400;-70
2022/07/24 00:30:44;;;;;;;16.27;14.50;;;;;;;;;;5041357;28;20484;-69
2022/07/24 00:33:10;;;;;;;17.13;15.23;;;;;;;;;;5039587;28;20033;-69
2022/07/24 00:35:35;;;;;;;16.20;14.50;;;;;;;;;;5039438;28;20122;-69
2022/07/24 00:38:01;;;;;;;16.83;15.18;;;;;;;;;;5045111;28;20025;-69
2022/07/24 00:40:27;;;;;;;16.02;14.43;;;;;;;;;;5044595;28;20091;-69
2022/07/24 00:42:53;;;;;;;17.15;15.38;;;;;;;;;;5046065;28;20436;-68
2022/07/24 00:45:19;;;;;;;17.23;15.52;;;;;;;;;;5043473;28;20033;-69
2022/07/24 00:47:45;;;;;;;17.00;15.40;;;;;;;;;;5047606;28;20051;-69
2022/07/24 00:50:11;;;;;;;17.02;15.23;;;;;;;;;;5047171;28;20565;-69
2022/07/24 00:52:37;;;;;;;19.40;15.48;;;;;;;;;;5042005;28;20039;-69
2022/07/24 00:55:03;;;;;;;18.05;14.80;;;;;;;;;;5042078;28;20020;-68
2022/07/24 00:57:30;;;;;;;16.27;14.57;;;;;;;;;;5044735;28;20033;-69
2022/07/24 00:59:56;;;;;;;17.15;15.05;;;;;;;;;;5044508;28;20640;-69
2022/07/24 01:02:22;;;;;;;15.95;14.35;;;;;;;;;;5039556;28;20033;-69
2022/07/24 01:04:48;;;;;;;17.67;16.02;;;;;;;;;;5047327;28;20025;-69
2022/07/24 01:07:14;;;;;;;16.55;14.90;;;;;;;;;;5039534;28;20038;-69
2022/07/24 01:09:40;;;;;;;17.63;14.98;;;;;;;;;;5047232;28;20029;-69
2022/07/24 01:12:06;;;;;;;16.30;14.70;;;;;;;;;;5040317;28;20041;-68
2022/07/24 01:14:32;;;;;;;16.77;15.05;;;;;;;;;;5045750;28;20132;-69
2022/07/24 01:16:58;;;;;;;17.02;14.68;;;;;;;;;;5041514;28;20401;-69
2022/07/24 01:19:25;;;;;;;15.65;14.15;;;;;;;;;;5045333;28;20067;-68
2022/07/24 01:21:52;;;;;;;17.35;15.57;;;;;;;;;;5042364;28;20033;-69
2022/07/24 01:24:19;;;;;;;18.35;15.40;;;;;;;;;;5046919;28;20029;-70
2022/07/24 01:26:46;;;;;;;17.25;15.43;;;;;;;;;;5041886;28;20369;-69
2022/07/24 01:29:11;;;;;;;16.83;15.23;;;;;;;;;;5040754;28;20041;-69
2022/07/24 01:31:37;;;;;;;16.92;15.30;;;;;;;;;;5041723;28;20405;-69
2022/07/24 01:34:04;;;;;;;18.77;15.45;;;;;;;;;;5043011;28;20041;-69
2022/07/24 01:36:29;;;;;;;19.52;16.70;;;;;;;;;;5041869;28;20024;-70
2022/07/24 01:38:55;;;;;;;18.10;15.73;;;;;;;;;;5040671;28;20039;-69
2022/07/24 01:41:20;;;;;;;18.17;16.20;;;;;;;;;;5043620;28;20127;-69
2022/07/24 01:43:46;;;;;;;18.25;16.35;;;;;;;;;;5040454;28;20041;-69
2022/07/24 01:46:11;;;;;;;18.42;16.52;;;;;;;;;;5046340;28;20734;-69
2022/07/24 01:48:39;;;;;;;19.45;17.42;;;;;;;;;;5032478;28;20067;-69
2022/07/24 01:51:05;;;;;;;19.67;17.60;;;;;;;;;;5039107;28;20397;-69
2022/07/24 01:53:30;;;;;;;18.77;16.98;;;;;;;;;;5032412;28;20049;-69
2022/07/24 01:55:56;;;;;;;18.23;16.38;;;;;;;;;;5036646;28;20076;-69
2022/07/24 01:58:22;;;;;;;19.10;16.60;;;;;;;;;;5037806;28;20044;-69
2022/07/24 02:00:47;;;;;;;18.05;16.15;;;;;;;;;;5044290;28;20044;-68
2022/07/24 02:03:13;;;;;;;18.50;16.70;;;;;;;;;;5040472;28;20032;-69
2022/07/24 02:05:39;;;;;;;17.95;16.10;;;;;;;;;;5042131;28;20075;-70
2022/07/24 02:08:05;;;;;;;19.35;17.35;;;;;;;;;;5043418;28;20206;-69
2022/07/24 02:10:30;;;;;;;18.23;16.30;;;;;;;;;;5043082;28;20080;-69
2022/07/24 02:12:56;;;;;;;17.52;15.75;;;;;;;;;;5042832;28;20028;-69
2022/07/24 02:15:22;;;;;;;16.38;14.77;;;;;;;;;;5042026;28;20037;-69
2022/07/24 02:17:50;;;;;;;18.00;16.20;;;;;;;;;;5040299;28;20029;-69
2022/07/24 02:20:16;;;;;;;17.73;15.85;;;;;;;;;;5041459;28;20044;-69
2022/07/24 02:22:42;;;;;;;17.92;16.13;;;;;;;;;;5038934;28;20132;-69
2022/07/24 02:25:09;;;;;;;18.08;16.05;;;;;;;;;;5038695;28;20551;-69
2022/07/24 02:27:35;;;;;;;17.45;15.75;;;;;;;;;;5047794;28;20119;-69
2022/07/24 02:30:02;;;;;;;19.23;17.13;;;;;;;;;;5042873;28;20163;-69
2022/07/24 02:32:27;;;;;;;18.42;16.58;;;;;;;;;;5046456;28;20041;-69
2022/07/24 02:34:53;;;;;;;19.73;16.27;;;;;;;;;;5035717;28;20052;-69
2022/07/24 02:37:19;;;;;;;20.13;16.38;;;;;;;;;;5045554;28;20103;-68
2022/07/24 02:39:45;;;;;;;20.23;17.15;;;;;;;;;;5035800;28;20171;-69
2022/07/24 02:42:11;;;;;;;18.27;16.13;;;;;;;;;;5043954;28;20119;-69
2022/07/24 02:44:36;;;;;;;17.83;16.05;;;;;;;;;;5041295;28;20036;-70
2022/07/24 02:47:02;;;;;;;19.60;16.75;;;;;;;;;;5042220;28;20029;-69
2022/07/24 02:49:27;;;;;;;19.45;17.40;;;;;;;;;;5040359;28;20162;-69
2022/07/24 02:51:53;;;;;;;18.63;16.63;;;;;;;;;;5042212;28;20037;-69
2022/07/24 02:54:18;;;;;;;18.67;16.58;;;;;;;;;;5040829;28;20176;-69
2022/07/24 02:56:44;;;;;;;19.92;17.42;;;;;;;;;;5038863;28;20512;-70
2022/07/24 02:59:10;;;;;;;19.10;16.85;;;;;;;;;;5042827;28;20037;-70
2022/07/24 03:01:35;;;;;;;20.98;18.77;;;;;;;;;;5040129;28;20134;-69
2022/07/24 03:04:01;;;;;;;19.88;17.77;;;;;;;;;;5039803;28;20377;-70
2022/07/24 03:06:26;;;;;;;19.17;17.27;;;;;;;;;;5041751;28;20136;-70
2022/07/24 03:08:52;;;;;;;20.15;18.15;;;;;;;;;;5038863;28;20047;-70
2022/07/24 03:11:18;;;;;;;19.95;17.58;;;;;;;;;;5042915;28;20033;-69
2022/07/24 03:13:43;;;;;;;21.23;17.27;;;;;;;;;;5043956;28;20501;-70
2022/07/24 03:16:09;;;;;;;18.13;16.23;;;;;;;;;;5040478;28;20113;-70
2022/07/24 03:18:35;;;;;;;23.20;17.00;;;;;;;;;;5044979;28;20439;-70
2022/07/24 03:21:01;;;;;;;19.33;16.85;;;;;;;;;;5034274;28;20033;-70
2022/07/24 03:23:26;;;;;;;22.15;17.25;;;;;;;;;;5043448;28;20124;-70
2022/07/24 03:25:54;;;;;;;20.00;17.90;;;;;;;;;;5036205;28;20040;-70
2022/07/24 03:28:19;;;;;;;19.23;17.17;;;;;;;;;;5043917;28;20037;-70
2022/07/24 03:30:45;;;;;;;20.23;17.40;;;;;;;;;;5037140;28;20111;-71
2022/07/24 03:33:11;;;;;;;20.52;18.35;;;;;;;;;;5038488;28;20112;-71
2022/07/24 03:35:36;;;;;;;18.08;16.30;;;;;;;;;;5036519;28;20516;-71
2022/07/24 03:38:02;;;;;;;19.00;17.02;;;;;;;;;;5041509;28;20052;-70
2022/07/24 03:40:28;;;;;;;20.35;17.95;;;;;;;;;;5042525;28;20047;-70
2022/07/24 03:42:53;;;;;;;19.90;17.80;;;;;;;;;;5039165;28;20033;-70
2022/07/24 03:45:19;;;;;;;20.83;17.75;;;;;;;;;;5042869;28;20037;-70
2022/07/24 03:47:45;;;;;;;20.00;18.00;;;;;;;;;;5038556;28;20678;-70
2022/07/24 03:50:11;;;;;;;20.70;17.52;;;;;;;;;;5041130;28;20038;-70
2022/07/24 03:52:36;;;;;;;18.85;17.00;;;;;;;;;;5042018;28;20040;-69
2022/07/24 03:55:02;;;;;;;19.70;17.73;;;;;;;;;;5044313;28;20638;-70
2022/07/24 03:57:28;;;;;;;20.20;18.10;;;;;;;;;;5044004;28;20499;-70
2022/07/24 03:59:54;;;;;;;20.42;18.30;;;;;;;;;;5043312;28;20065;-70
2022/07/24 04:02:19;;;;;;;20.00;16.83;;;;;;;;;;5033097;28;20056;-70
2022/07/24 04:04:45;;;;;;;19.10;16.42;;;;;;;;;;5042756;28;20074;-70
2022/07/24 04:07:10;;;;;;;21.58;18.45;;;;;;;;;;5039292;28;20601;-70
2022/07/24 04:09:36;;;;;;;19.50;17.05;;;;;;;;;;5047561;28;20107;-70
2022/07/24 04:12:02;;;;;;;18.65;16.80;;;;;;;;;;5043171;28;20123;-70
2022/07/24 04:14:27;;;;;;;19.95;17.63;;;;;;;;;;5039577;28;20037;-69
2022/07/24 04:16:53;;;;;;;20.10;18.15;;;;;;;;;;5034355;28;20045;-70
2022/07/24 04:19:19;;;;;;;20.02;17.55;;;;;;;;;;5048190;28;20040;-69
2022/07/24 04:21:44;;;;;;;23.42;18.55;;;;;;;;;;5044394;28;20052;-69
2022/07/24 04:24:10;;;;;;;21.10;18.90;;;;;;;;;;5041671;28;20068;-69
2022/07/24 04:26:35;;;;;;;19.17;16.23;;;;;;;;;;5043065;28;20028;-70
2022/07/24 04:29:01;;;;;;;18.08;16.23;;;;;;;;;;5043367;28;20049;-70
2022/07/24 04:31:27;;;;;;;19.15;17.13;;;;;;;;;;5043786;28;20074;-69
2022/07/24 04:33:52;;;;;;;18.65;16.67;;;;;;;;;;5034801;28;20099;-70
2022/07/24 04:36:18;;;;;;;18.30;16.40;;;;;;;;;;5039783;28;20407;-69
2022/07/24 04:38:43;;;;;;;17.27;15.48;;;;;;;;;;5036206;28;20130;-70
2022/07/24 04:41:09;;;;;;;17.70;16.00;;;;;;;;;;5047002;28;20040;-69
2022/07/24 04:43:35;;;;;;;16.70;15.20;;;;;;;;;;5036553;28;20037;-70
2022/07/24 04:46:01;;;;;;;17.10;15.40;;;;;;;;;;5038418;28;20041;-70
2022/07/24 04:48:26;;;;;;;16.45;14.85;;;;;;;;;;5038926;28;20057;-70
2022/07/24 04:50:52;;;;;;;17.65;14.30;;;;;;;;;;5041392;28;20547;-70
2022/07/24 04:53:17;;;;;;;17.70;15.38;;;;;;;;;;5037782;28;20140;-70
2022/07/24 04:55:43;;;;;;;17.27;15.48;;;;;;;;;;5044377;28;20025;-70
2022/07/24 04:58:09;;;;;;;17.30;15.50;;;;;;;;;;5042617;28;20041;-70
2022/07/24 05:00:34;;;;;;;17.63;15.93;;;;;;;;;;5043124;28;20047;-70
2022/07/24 05:03:00;;;;;;;16.35;14.75;;;;;;;;;;5039047;28;20040;-70
2022/07/24 05:05:25;;;;;;;16.08;14.30;;;;;;;;;;5045293;28;20448;-70
2022/07/24 05:07:51;;;;;;;16.42;14.80;;;;;;;;;;5044796;28;20127;-69
2022/07/24 05:10:17;;;;;;;16.42;14.85;;;;;;;;;;5045984;28;20059;-70
2022/07/24 05:12:43;;;;;;;16.23;14.73;;;;;;;;;;5042096;28;20039;-70
2022/07/24 05:15:09;;;;;;;16.45;14.73;;;;;;;;;;5041714;28;20033;-70
2022/07/24 05:17:35;;;;;;;15.82;14.07;;;;;;;;;;5043974;28;20132;-70
2022/07/24 05:20:03;;;;;;;16.10;13.82;;;;;;;;;;5035584;28;20463;-70
2022/07/24 05:22:29;;;;;;;15.73;14.05;;;;;;;;;;5040842;28;20115;-69
2022/07/24 05:24:54;;;;;;;14.98;13.43;;;;;;;;;;5036529;28;20112;-69
2022/07/24 05:27:20;;;;;;;15.55;14.05;;;;;;;;;;5043292;28;20069;-67
2022/07/24 05:29:46;;;;;;;15.52;14.10;;;;;;;;;;5040676;28;20040;-67
2022/07/24 05:32:12;;;;;;;15.65;14.05;;;;;;;;;;5039860;28;20064;-68
2022/07/24 05:34:38;;;;;;;15.38;13.88;;;;;;;;;;5035986;28;20510;-68
2022/07/24 05:37:04;;;;;;;18.75;13.88;;;;;;;;;;5035401;28;20450;-68
2022/07/24 05:39:29;;;;;;;14.95;13.45;;;;;;;;;;5036775;28;20094;-68
2022/07/24 05:41:55;;;;;;;14.90;13.55;;;;;;;;;;5039684;28;20037;-68
2022/07/24 05:44:21;;;;;;;15.68;14.10;;;;;;;;;;5037873;28;20041;-68
2022/07/24 05:46:47;;;;;;;14.73;13.18;;;;;;;;;;5038754;28;20083;-68
2022/07/24 05:49:13;;;;;;;14.68;13.27;;;;;;;;;;5036421;28;20037;-67
2022/07/24 05:51:38;;;;;;;14.75;13.13;;;;;;;;;;5038815;28;20094;-68
2022/07/24 05:54:04;;;;;;;13.80;12.40;;;;;;;;;;5037099;28;20045;-68
2022/07/24 05:56:30;;;;;;;13.27;12.07;;;;;;;;;;5040474;28;20148;-68
2022/07/24 05:58:56;;;;;;;14.70;12.60;;;;;;;;;;5038016;28;20032;-68
2022/07/24 06:01:21;;;;;;;13.98;12.65;;;;;;;;;;5038153;28;20041;-68
2022/07/24 06:03:47;;;;;;;15.40;12.32;;;;;;;;;;5041560;28;20040;-68
2022/07/24 06:06:13;;;;;;;12.82;11.63;;;;;;;;;;5045585;28;20029;-68
2022/07/24 06:08:39;;;;;;;14.07;12.70;;;;;;;;;;5044205;28;20036;-68
2022/07/24 06:11:05;;;;;;;12.80;11.50;;;;;;;;;;5044452;28;20040;-68
2022/07/24 06:13:31;;;;;;;13.35;11.95;;;;;;;;;;5042360;28;20033;-68
2022/07/24 06:15:56;;;;;;;14.32;12.93;;;;;;;;;;5051303;28;20048;-68
2022/07/24 06:18:22;;;;;;;13.55;12.25;;;;;;;;;;5055687;28;20107;-68
2022/07/24 06:20:48;;;;;;;13.57;12.48;;;;;;;;;;5048511;28;20032;-68
2022/07/24 06:23:14;;;;;;;13.73;12.48;;;;;;;;;;5049428;28;20033;-68
2022/07/24 06:25:40;;;;;;;13.90;11.82;;;;;;;;;;5050640;28;20116;-68
2022/07/24 06:28:05;;;;;;;13.93;12.63;;;;;;;;;;5054177;28;20072;-68
2022/07/24 06:30:31;;;;;;;13.50;12.30;;;;;;;;;;5049883;28;20043;-68
2022/07/24 06:32:58;;;;;;;14.93;12.45;;;;;;;;;;5050702;28;20706;-69
2022/07/24 06:35:26;;;;;;;13.50;12.02;;;;;;;;;;5050597;28;20056;-68
2022/07/24 06:37:53;;;;;;;13.48;12.32;;;;;;;;;;5048446;28;20040;-69
2022/07/24 06:40:19;;;;;;;13.30;12.00;;;;;;;;;;5048311;28;20032;-68
2022/07/24 06:42:46;;;;;;;12.90;11.73;;;;;;;;;;5048674;28;20068;-68
2022/07/24 06:45:12;;;;;;;13.00;11.85;;;;;;;;;;5042262;28;20140;-68
2022/07/24 06:47:38;;;;;;;12.40;11.32;;;;;;;;;;5034852;28;20091;-68
2022/07/24 06:50:05;;;;;;;13.75;12.35;;;;;;;;;;5037372;28;20036;-68
2022/07/24 06:52:31;;;;;;;12.75;11.45;;;;;;;;;;5036615;28;20504;-68
2022/07/24 06:54:57;;;;;;;12.27;11.07;;;;;;;;;;5037542;28;20039;-68
2022/07/24 06:57:25;;;;;;;12.18;11.07;;;;;;;;;;5035800;28;20275;-68
2022/07/24 06:59:52;;;;;;;13.15;11.15;;;;;;;;;;5035494;28;20029;-69
2022/07/24 07:02:19;;;;;;;13.55;11.75;;;;;;;;;;5038400;28;20495;-68
2022/07/24 07:04:44;;;;;;;13.48;11.00;;;;;;;;;;5039482;28;20411;-69
2022/07/24 07:07:10;;;;;;;12.68;11.57;;;;;;;;;;5043368;28;20037;-69
2022/07/24 07:09:36;;;;;;;13.73;12.48;;;;;;;;;;5042488;28;20063;-68
2022/07/24 07:12:03;;;;;;;13.75;12.52;;;;;;;;;;5042245;28;20635;-68
2022/07/24 07:14:28;;;;;;;11.70;10.70;;;;;;;;;;5045404;28;20629;-68
2022/07/24 07:16:54;;;;;;;11.80;10.70;;;;;;;;;;5043183;28;20025;-68
2022/07/24 07:19:20;;;;;;;12.48;11.38;;;;;;;;;;5044054;28;20069;-68
2022/07/24 07:21:45;;;;;;;13.40;12.20;;;;;;;;;;5041682;28;20029;-68
2022/07/24 07:24:11;;;;;;;11.85;10.80;;;;;;;;;;5038657;28;20209;-68
2022/07/24 07:26:37;;;;;;;12.68;11.35;;;;;;;;;;5042818;28;20029;-68
2022/07/24 07:29:02;;;;;;;12.25;11.25;;;;;;;;;;5048220;28;20032;-68
2022/07/24 07:31:28;;;;;;;13.10;11.82;;;;;;;;;;5048680;28;20044;-67
2022/07/24 07:33:53;;;;;;;12.25;11.18;;;;;;;;;;5044897;28;20048;-68
2022/07/24 07:36:19;;;;;;;11.65;10.73;;;;;;;;;;5046955;28;20043;-68
2022/07/24 07:38:45;;;;;;;11.85;10.75;;;;;;;;;;5046863;28;20041;-68
2022/07/24 07:41:12;;;;;;;11.60;10.57;;;;;;;;;;5045805;28;20059;-68
2022/07/24 07:43:38;;;;;;;13.60;11.02;;;;;;;;;;5045650;28;20444;-68
2022/07/24 07:46:05;;;;;;;12.13;10.88;;;;;;;;;;5045286;28;20060;-68
2022/07/24 07:48:31;;;;;;;11.70;10.68;;;;;;;;;;5044023;28;20044;-68
2022/07/24 07:50:57;;;;;;;11.85;10.75;;;;;;;;;;5047681;28;20403;-67
2022/07/24 07:53:23;;;;;;;12.00;10.90;;;;;;;;;;5043282;28;20084;-68
2022/07/24 07:55:51;;;;;;;11.18;10.10;;;;;;;;;;5045284;28;20056;-69
2022/07/24 07:58:17;;;;;;;11.82;10.23;;;;;;;;;;5042366;28;20064;-69
2022/07/24 08:00:43;;;;;;;11.77;10.68;;;;;;;;;;5047000;28;20039;-69
2022/07/24 08:03:09;;;;;;;11.45;10.50;;;;;;;;;;5045083;28;20036;-69
2022/07/24 08:05:35;;;;;;;11.35;10.27;;;;;;;;;;5041447;28;20036;-69
2022/07/24 08:08:00;;;;;;;10.60;9.65;;;;;;;;;;5044887;28;20036;-70
2022/07/24 08:10:26;;;;;;;10.50;9.60;;;;;;;;;;5041170;28;20454;-69
2022/07/24 08:12:52;;;;;;;10.32;9.45;;;;;;;;;;5042574;28;20041;-70
2022/07/24 08:15:17;;;;;;;11.40;10.32;;;;;;;;;;5039667;28;20041;-69
2022/07/24 08:17:43;;;;;;;11.13;10.07;;;;;;;;;;5041550;28;20429;-70
2022/07/24 08:20:09;;;;;;;10.70;9.75;;;;;;;;;;5040327;28;20207;-69
2022/07/24 08:22:35;;;;;;;10.32;9.43;;;;;;;;;;5044933;28;20037;-69
2022/07/24 08:25:00;;;;;;;10.43;9.55;;;;;;;;;;5039298;28;20098;-70
2022/07/24 08:27:26;;;;;;;9.98;9.10;;;;;;;;;;5045617;28;20051;-70
2022/07/24 08:29:52;;;;;;;10.60;9.52;;;;;;;;;;5039216;28;20728;-70
2022/07/24 08:32:18;;;;;;;10.95;9.85;;;;;;;;;;5043115;28;20086;-69
2022/07/24 08:34:44;;;;;;;10.63;9.40;;;;;;;;;;5036951;28;20041;-70
2022/07/24 08:37:09;;;;;;;10.32;9.43;;;;;;;;;;5042968;28;20084;-70
2022/07/24 08:39:35;;;;;;;10.38;9.45;;;;;;;;;;5036808;28;20044;-70
2022/07/24 08:42:00;;;;;;;10.52;9.48;;;;;;;;;;5041995;28;20098;-70
2022/07/24 08:44:26;;;;;;;9.18;8.38;;;;;;;;;;5041982;28;20043;-70
2022/07/24 08:46:53;;;;;;;8.95;8.15;;;;;;;;;;5041132;28;20396;-70
2022/07/24 08:49:19;;;;;;;9.35;8.45;;;;;;;;;;5041584;28;20488;-70
2022/07/24 08:51:46;;;;;;;9.45;8.65;;;;;;;;;;5040287;28;20083;-69
2022/07/24 08:54:11;;;;;;;9.02;8.32;;;;;;;;;;5044637;28;20063;-70
2022/07/24 08:56:41;;;;;;;9.10;8.20;;;;;;;;;;5038015;28;20033;-70
2022/07/24 08:59:20;;;;;;;8.88;7.97;;;;;;;;;;5043590;28;20412;-70
2022/07/24 09:01:49;;;;;;;8.85;7.97;;;;;;;;;;5039203;28;20114;-70
2022/07/24 09:04:33;;;;;;;10.35;8.75;;;;;;;;;;5039499;28;20112;-70
2022/07/24 09:07:06;;;;;;;9.18;8.38;;;;;;;;;;5044004;28;20037;-70
2022/07/24 09:09:32;;;;;;;9.02;8.13;;;;;;;;;;5042930;28;20044;-70
2022/07/24 09:12:09;;;;;;;9.48;8.55;;;;;;;;;;5041229;28;20029;-70
2022/07/24 09:14:38;;;;;;;9.20;8.40;;;;;;;;;;5038742;28;20280;-69
2022/07/24 09:17:09;;;;;;;8.90;8.10;;;;;;;;;;5045573;28;20029;-70
2022/07/24 09:19:59;;;;;;;9.73;8.73;;;;;;;;;;5043192;28;20050;-69
2022/07/24 09:22:40;;;;;;;9.40;8.48;;;;;;;;;;5039363;28;20045;-69
2022/07/24 09:25:08;;;;;;;9.00;8.23;;;;;;;;;;5036096;28;20033;-70
2022/07/24 09:27:36;;;;;;;9.40;8.38;;;;;;;;;;5045445;28;20041;-70
2022/07/24 09:30:03;;;;;;;8.93;8.20;;;;;;;;;;5039050;28;20046;-70
2022/07/24 09:32:29;;;;;;;9.10;8.40;;;;;;;;;;5042965;28;20123;-69
2022/07/24 09:34:55;;;;;;;9.45;8.35;;;;;;;;;;5038847;28;20111;-70
2022/07/24 09:37:21;;;;;;;9.05;8.20;;;;;;;;;;5041342;28;20064;-70
2022/07/24 09:39:47;;;;;;;9.55;8.70;;;;;;;;;;5039386;28;20093;-70
2022/07/24 09:42:14;;;;;;;9.63;8.82;;;;;;;;;;5042526;28;20443;-70
2022/07/24 09:44:40;;;;;;;10.00;9.00;;;;;;;;;;5045188;28;20032;-70
2022/07/24 09:47:11;;;;;;;9.70;8.82;;;;;;;;;;5042032;28;20123;-70
2022/07/24 09:49:38;;;;;;;8.93;8.23;;;;;;;;;;5042146;28;20039;-70
2022/07/24 09:52:14;;;;;;;9.27;8.32;;;;;;;;;;5038488;28;20467;-70
2022/07/24 09:54:47;;;;;;;9.25;8.35;;;;;;;;;;5040635;28;20076;-70
2022/07/24 09:57:25;;;;;;;9.52;8.68;;;;;;;;;;5040980;28;20510;-70
2022/07/24 09:59:53;;;;;;;9.55;8.65;;;;;;;;;;5041057;28;20119;-70
2022/07/24 10:02:22;;;;;;;10.13;8.82;;;;;;;;;;5035168;28;20223;-70
2022/07/24 10:04:48;;;;;;;9.52;8.73;;;;;;;;;;5042310;28;20025;-70
2022/07/24 10:07:16;;;;;;;9.57;8.70;;;;;;;;;;5042007;28;20084;-70
2022/07/24 10:09:51;;;;;;;9.52;8.63;;;;;;;;;;5059804;28;20444;-69
2022/07/24 10:12:20;;;;;;;10.23;8.90;;;;;;;;;;5048396;28;20045;-68
2022/07/24 10:14:48;;;;;;;9.13;8.43;;;;;;;;;;5037581;28;20399;-70
2022/07/24 10:17:15;;;;;;;10.60;9.05;;;;;;;;;;5046048;28;20053;-70
2022/07/24 10:19:47;;;;;;;9.63;8.70;;;;;;;;;;5043727;28;20030;-70
2022/07/24 10:22:18;;;;;;;9.27;8.30;;;;;;;;;;5043238;28;20055;-68
2022/07/24 10:25:06;;;;;;;9.70;8.75;;;;;;;;;;5046297;28;20061;-68
2022/07/24 10:27:34;;;;;;;9.68;8.98;;;;;;;;;;5042768;28;20431;-69
2022/07/24 10:30:08;;;;;;;9.73;8.80;;;;;;;;;;5049475;28;20044;-69
2022/07/24 10:32:35;;;;;;;9.50;8.60;;;;;;;;;;5039595;28;20813;-69
2022/07/24 10:35:16;;;;;;;9.68;8.77;;;;;;;;;;5043453;28;20396;-70
2022/07/24 10:37:42;;;;;;;9.85;9.00;;;;;;;;;;5047129;28;20091;-69
2022/07/24 10:40:23;;;;;;;10.25;9.25;;;;;;;;;;5040034;28;20143;-68
2022/07/24 10:43:11;;;;;;;9.55;8.75;;;;;;;;;;5044120;28;20399;-69
2022/07/24 10:45:37;;;;;;;9.02;8.23;;;;;;;;;;5045946;28;20037;-68
2022/07/24 10:48:22;;;;;;;9.73;8.75;;;;;;;;;;5037534;28;20041;-68
2022/07/24 10:50:56;;;;;;;9.73;8.85;;;;;;;;;;5044081;28;20048;-69
2022/07/24 10:53:24;;;;;;;10.00;8.45;;;;;;;;;;5041381;28;20037;-68
2022/07/24 10:55:50;;;;;;;9.02;8.32;;;;;;;;;;5044220;28;20458;-68
2022/07/24 10:58:16;;;;;;;8.77;8.07;;;;;;;;;;5045937;28;20029;-69
2022/07/24 11:00:46;;;;;;;9.20;8.32;;;;;;;;;;5044584;28;20124;-69
2022/07/24 11:03:28;;;;;;;8.48;7.60;;;;;;;;;;5045120;28;20120;-69
2022/07/24 11:06:11;;;;;;;8.00;7.30;;;;;;;;;;5038077;28;20033;-68
2022/07/24 11:08:38;;;;;;;8.32;7.63;;;;;;;;;;5042601;28;20040;-68
2022/07/24 11:11:24;;;;;;;8.80;7.97;;;;;;;;;;5046991;28;20127;-69
2022/07/24 11:13:56;;;;;;;11.23;7.75;;;;;;;;;;5037363;28;20040;-69
2022/07/24 11:16:25;;;;;;;8.90;8.15;;;;;;;;;;5044259;28;20041;-68
2022/07/24 11:18:54;;;;;;;9.50;8.10;;;;;;;;;;5044655;28;20531;-69
2022/07/24 11:21:37;;;;;;;8.90;8.20;;;;;;;;;;5031366;28;20087;-70
2022/07/24 11:24:21;;;;;;;9.40;8.55;;;;;;;;;;5026706;28;20045;-69
2022/07/24 11:27:04;;;;;;;9.25;8.35;;;;;;;;;;5026140;28;20057;-68
2022/07/24 11:29:36;;;;;;;9.25;8.35;;;;;;;;;;5030532;28;20064;-69
2022/07/24 11:32:20;;;;;;;8.98;8.23;;;;;;;;;;5026492;28;20049;-67
2022/07/24 11:34:48;;;;;;;8.48;7.80;;;;;;;;;;5028726;28;20037;-68
2022/07/24 11:37:15;;;;;;;9.07;8.20;;;;;;;;;;5028766;28;20052;-68
2022/07/24 11:39:43;;;;;;;8.55;7.95;;;;;;;;;;5032621;28;20034;-68
2022/07/24 11:42:11;;;;;;;8.93;8.13;;;;;;;;;;5028923;28;20044;-68
2022/07/24 11:44:48;;;;;;;8.95;8.18;;;;;;;;;;5029347;28;20038;-68
2022/07/24 11:47:20;;;;;;;9.00;8.13;;;;;;;;;;5028229;28;20111;-69
2022/07/24 11:49:52;;;;;;;8.85;8.10;;;;;;;;;;5022572;28;20037;-68
2022/07/24 11:52:24;;;;;;;8.80;8.10;;;;;;;;;;5027534;28;20041;-67
2022/07/24 11:54:51;;;;;;;9.95;8.43;;;;;;;;;;5030864;28;20123;-68
2022/07/24 11:57:30;;;;;;;8.97;8.17;;;;;;;;;;5030421;28;20033;-68
2022/07/24 11:59:56;;;;;;;9.38;8.48;;;;;;;;;;5022616;28;20490;-68
2022/07/24 12:02:22;;;;;;;9.15;8.45;;;;;;;;;;5028757;28;20045;-68
2022/07/24 12:04:49;;;;;;;8.88;8.07;;;;;;;;;;5027579;28;20041;-69
2022/07/24 12:07:20;;;;;;;9.18;8.43;;;;;;;;;;5027707;28;20059;-69
2022/07/24 12:09:58;;;;;;;8.95;8.18;;;;;;;;;;5029242;28;20048;-68
2022/07/24 12:12:26;;;;;;;9.40;8.50;;;;;;;;;;5031908;28;20060;-68
2022/07/24 12:15:13;;;;;;;;;;;;;;;;;;5027437;28;20132;-68
2022/07/24 12:18:02;;;;;;;8.98;8.23;;;;;;;;;;5020502;28;19920;-68
2022/07/24 12:20:33;;;;;;;9.13;8.32;;;;;;;;;;5030075;28;20033;-68
2022/07/24 12:23:02;;;;;;;9.27;8.52;;;;;;;;;;5033530;28;20040;-68
2022/07/24 12:25:31;;;;;;;9.60;8.63;;;;;;;;;;5026506;28;20033;-68
2022/07/24 12:28:09;;;;;;;8.93;8.02;;;;;;;;;;5025884;28;20025;-69
2022/07/24 12:30:54;;;;;;;9.25;8.45;;;;;;;;;;5031140;28;20144;-69
2022/07/24 12:33:21;;;;;;;9.60;8.80;;;;;;;;;;5023372;28;20037;-68
2022/07/24 12:36:08;;;;;;;10.07;9.27;;;;;;;;;;5029925;28;20132;-68
2022/07/24 12:38:36;;;;;;;9.68;8.90;;;;;;;;;;5024071;28;20029;-68
2022/07/24 12:41:12;;;;;;;9.20;8.40;;;;;;;;;;5030421;28;20041;-68
2022/07/24 12:43:55;;;;;;;9.20;8.40;;;;;;;;;;5026818;28;20065;-68
2022/07/24 12:46:24;;;;;;;9.35;8.55;;;;;;;;;;5026671;28;20029;-69
2022/07/24 12:49:06;;;;;;;8.88;8.13;;;;;;;;;;5033029;28;20029;-68
2022/07/24 12:52:02;;;;;;;9.10;8.40;;;;;;;;;;5029376;28;20042;-68
2022/07/24 12:54:33;;;;;;;8.45;7.70;;;;;;;;;;5025375;28;20453;-68
2022/07/24 12:57:07;;;;;;;8.98;8.27;;;;;;;;;;5028119;28;20039;-68
2022/07/24 12:59:44;;;;;;;8.85;8.15;;;;;;;;;;5030893;28;20044;-68
2022/07/24 13:02:16;;;;;;;9.95;9.00;;;;;;;;;;5022250;28;20416;-68
2022/07/24 13:04:47;;;;;;;8.98;8.15;;;;;;;;;;5023335;28;20182;-69
2022/07/24 13:07:15;;;;;;;8.93;8.02;;;;;;;;;;5033631;28;20112;-69
2022/07/24 13:09:41;;;;;;;8.60;7.80;;;;;;;;;;5025736;28;20130;-69
2022/07/24 13:12:08;;;;;;;9.00;8.07;;;;;;;;;;5030679;28;20045;-69
2022/07/24 13:14:33;;;;;;;9.15;8.25;;;;;;;;;;5031637;28;20053;-69
2022/07/24 13:17:18;;;;;;;9.50;8.50;;;;;;;;;;5031423;28;20459;-69
2022/07/24 13:19:49;;;;;;;9.13;8.20;;;;;;;;;;5026596;28;20032;-69
2022/07/24 13:22:15;;;;;;;8.38;7.55;;;;;;;;;;5032802;28;20044;-69
2022/07/24 13:24:41;;;;;;;8.68;7.93;;;;;;;;;;5026073;28;20061;-70
2022/07/24 13:27:09;;;;;;;8.18;7.47;;;;;;;;;;5026824;28;20029;-69
2022/07/24 13:29:36;;;;;;;9.35;8.48;;;;;;;;;;5026224;28;20484;-70
2022/07/24 13:32:05;;;;;;;13.32;8.40;;;;;;;;;;5028990;28;20516;-70
2022/07/24 13:34:31;;;;;;;9.35;7.68;;;;;;;;;;5027905;28;20037;-70
2022/07/24 13:36:58;;;;;;;9.25;8.40;;;;;;;;;;5023283;28;20084;-70
2022/07/24 13:39:23;;;;;;;8.20;7.60;;;;;;;;;;5031180;28;20059;-70
2022/07/24 13:41:49;;;;;;;8.65;7.95;;;;;;;;;;5031274;28;20511;-70
2022/07/24 13:44:15;;;;;;;8.98;8.27;;;;;;;;;;5035812;28;20045;-69
2022/07/24 13:46:41;;;;;;;8.63;7.90;;;;;;;;;;5027082;28;20026;-70
2022/07/24 13:49:07;;;;;;;9.40;8.70;;;;;;;;;;5027757;28;20107;-69
2022/07/24 13:51:34;;;;;;;8.75;8.05;;;;;;;;;;5029083;28;20038;-70
2022/07/24 13:54:00;;;;;;;9.32;8.52;;;;;;;;;;5031655;28;20037;-69
2022/07/24 13:56:27;;;;;;;9.02;8.32;;;;;;;;;;5029171;28;20078;-69
2022/07/24 13:58:52;;;;;;;9.38;8.48;;;;;;;;;;5028540;22;20077;-66
2022/07/24 14:01:19;;;;;;;8.68;7.93;;;;;;;;;;5009596;28;20057;-67
2022/07/24 14:03:45;;;;;;;8.45;7.72;;;;;;;;;;5010013;28;20073;-66
2022/07/24 14:06:12;;;;;;;8.45;7.65;;;;;;;;;;4997341;28;20045;-67
2022/07/24 14:08:39;;;;;;;8.77;8.07;;;;;;;;;;4984823;28;20030;-66
2022/07/24 14:11:05;;;;;;;8.75;7.97;;;;;;;;;;4988296;28;20608;-66
2022/07/24 14:13:31;;;;;;;8.75;7.93;;;;;;;;;;4992132;28;20031;-66
2022/07/24 14:15:57;;;;;;;9.10;8.30;;;;;;;;;;4985497;28;20035;-65
2022/07/24 14:18:22;;;;;;;9.07;8.38;;;;;;;;;;4989792;28;20030;-67
2022/07/24 14:20:48;;;;;;;8.93;8.13;;;;;;;;;;4989470;28;20062;-66
2022/07/24 14:23:14;;;;;;;9.20;8.30;;;;;;;;;;4988704;28;20054;-66
2022/07/24 14:25:40;;;;;;;10.30;8.10;;;;;;;;;;4987391;28;20046;-66
2022/07/24 14:28:05;;;;;;;9.05;7.95;;;;;;;;;;4989483;28;20026;-66
2022/07/24 14:30:32;;;;;;;8.75;8.07;;;;;;;;;;4990159;28;20041;-66
2022/07/24 14:32:57;;;;;;;8.30;7.70;;;;;;;;;;4987990;28;20165;-66